createdAt,value
2022-11-21T00:01:18.322Z,5.04
2022-11-21T00:03:46.526Z,5.14
2022-11-21T00:06:14.966Z,5.28
2022-11-21T00:08:44.438Z,5.11
2022-11-21T00:11:13.035Z,5.09
2022-11-21T00:13:41.338Z,4.82
2022-11-21T00:16:11.603Z,4.94
2022-11-21T00:18:40.308Z,4.99
2022-11-21T00:21:09.816Z,4.75
2022-11-21T00:23:37.761Z,4.67
2022-11-21T00:26:08.352Z,4.69
2022-11-21T00:28:36.639Z,4.62
2022-11-21T00:31:05.389Z,4.55
2022-11-21T00:33:33.609Z,4.58
2022-11-21T00:36:07.343Z,4.70
2022-11-21T00:38:35.301Z,4.55
2022-11-21T00:41:03.187Z,4.60
2022-11-21T00:43:32.512Z,4.68
2022-11-21T00:46:02.482Z,4.70
2022-11-21T00:48:30.790Z,4.65
2022-11-21T00:51:00.354Z,4.66
2022-11-21T00:53:28.265Z,4.74
2022-11-21T00:55:56.212Z,4.65
2022-11-21T00:58:24.121Z,4.78
2022-11-21T01:00:53.773Z,4.69
2022-11-21T01:03:22.054Z,4.77
2022-11-21T01:05:49.914Z,4.81
2022-11-21T01:08:17.788Z,4.70
2022-11-21T01:10:45.656Z,4.63
2022-11-21T01:13:13.616Z,4.72
2022-11-21T01:15:41.511Z,4.75
2022-11-21T01:18:10.969Z,4.76
2022-11-21T01:20:40.532Z,4.78
2022-11-21T01:23:08.343Z,4.78
2022-11-21T01:25:39.161Z,4.65
2022-11-21T01:28:07.033Z,4.69
2022-11-21T01:30:34.917Z,4.65
2022-11-21T01:33:02.815Z,4.73
2022-11-21T01:35:32.414Z,4.74
2022-11-21T01:38:00.575Z,4.78
2022-11-21T01:40:28.496Z,4.79
2022-11-21T01:43:01.259Z,4.75
2022-11-21T01:45:53.542Z,4.69
2022-11-21T01:48:24.424Z,4.74
2022-11-21T01:50:55.036Z,4.71
2022-11-21T01:53:23.223Z,4.68
2022-11-21T01:55:51.452Z,4.65
2022-11-21T01:58:19.776Z,4.68
2022-11-21T02:00:49.000Z,4.59
2022-11-21T02:03:22.414Z,4.65
2022-11-21T02:05:50.443Z,4.79
2022-11-21T02:08:22.275Z,4.69
2022-11-21T02:10:57.937Z,4.49
2022-11-21T02:13:26.432Z,4.71
2022-11-21T02:15:55.343Z,4.70
2022-11-21T02:18:23.278Z,4.61
2022-11-21T02:21:01.380Z,4.69
2022-11-21T02:23:36.454Z,4.65
2022-11-21T02:26:06.097Z,4.51
2022-11-21T02:28:34.059Z,4.62
2022-11-21T02:31:01.999Z,4.61
2022-11-21T02:33:29.975Z,4.35
2022-11-21T02:35:59.491Z,4.19
2022-11-21T02:38:31.911Z,4.38
2022-11-21T02:41:14.738Z,4.40
2022-11-21T02:43:47.623Z,4.53
2022-11-21T02:46:15.521Z,4.41
2022-11-21T02:48:43.725Z,4.50
2022-11-21T02:51:11.672Z,4.47
2022-11-21T02:53:39.565Z,4.48
2022-11-21T02:56:08.976Z,4.54
2022-11-21T02:58:37.118Z,4.58
2022-11-21T03:01:05.232Z,4.63
2022-11-21T03:03:33.147Z,4.53
2022-11-21T03:06:01.145Z,4.59
2022-11-21T03:08:29.003Z,4.60
2022-11-21T03:10:56.838Z,4.54
2022-11-21T03:13:26.145Z,4.66
2022-11-21T03:15:55.385Z,4.54
2022-11-21T03:18:25.199Z,4.44
2022-11-21T03:20:53.086Z,4.43
2022-11-21T03:23:21.466Z,4.36
2022-11-21T03:25:49.356Z,4.38
2022-11-21T03:28:17.360Z,4.30
2022-11-21T03:30:46.611Z,4.31
2022-11-21T03:33:14.503Z,4.29
2022-11-21T03:35:42.364Z,4.27
2022-11-21T03:38:10.312Z,4.35
2022-11-21T03:40:38.172Z,4.22
2022-11-21T03:43:06.636Z,4.27
2022-11-21T03:45:34.789Z,4.18
2022-11-21T03:48:04.154Z,4.37
2022-11-21T03:50:32.218Z,4.45
2022-11-21T03:53:00.086Z,4.30
2022-11-21T03:55:27.935Z,4.42
2022-11-21T03:57:55.849Z,4.36
2022-11-21T04:00:24.266Z,4.37
2022-11-21T04:02:52.303Z,4.31
2022-11-21T04:05:21.668Z,4.31
2022-11-21T04:07:49.736Z,4.27
2022-11-21T04:10:18.001Z,4.16
2022-11-21T04:12:46.187Z,4.34
2022-11-21T04:15:14.271Z,4.34
2022-11-21T04:17:42.630Z,4.20
2022-11-21T04:20:11.880Z,4.39
2022-11-21T04:22:41.102Z,4.35
2022-11-21T04:25:09.537Z,4.40
2022-11-21T04:27:37.464Z,4.37
2022-11-21T04:30:06.466Z,4.35
2022-11-21T04:32:34.489Z,4.46
2022-11-21T04:35:02.386Z,4.52
2022-11-21T04:37:30.343Z,4.46
2022-11-21T04:39:59.868Z,4.39
2022-11-21T04:42:27.812Z,4.42
2022-11-21T04:44:55.622Z,4.38
2022-11-21T04:47:23.598Z,4.41
2022-11-21T04:49:51.594Z,4.48
2022-11-21T04:52:19.582Z,4.47
2022-11-21T04:54:48.112Z,4.36
2022-11-21T04:57:17.448Z,4.35
2022-11-21T04:59:45.307Z,4.43
2022-11-21T05:02:13.174Z,4.38
2022-11-21T05:04:41.196Z,4.37
2022-11-21T05:07:09.103Z,4.43
2022-11-21T05:09:37.058Z,4.36
2022-11-21T05:12:22.609Z,4.34
2022-11-21T05:14:51.853Z,4.32
2022-11-21T05:17:19.772Z,4.42
2022-11-21T05:19:47.676Z,4.32
2022-11-21T05:22:15.569Z,4.41
2022-11-21T05:24:43.464Z,4.44
2022-11-21T05:27:11.644Z,4.47
2022-11-21T05:29:39.603Z,4.38
2022-11-21T05:32:08.943Z,4.42
2022-11-21T05:34:36.820Z,4.37
2022-11-21T05:37:05.446Z,4.48
2022-11-21T05:39:33.461Z,4.44
2022-11-21T05:42:03.225Z,4.51
2022-11-21T05:44:30.851Z,4.50
2022-11-21T05:46:59.115Z,4.53
2022-11-21T05:49:28.441Z,4.53
2022-11-21T05:51:56.440Z,4.48
2022-11-21T05:54:24.628Z,4.52
2022-11-21T05:56:52.666Z,4.55
2022-11-21T05:59:20.695Z,4.53
2022-11-21T06:02:06.041Z,4.55
2022-11-21T06:04:36.006Z,4.52
2022-11-21T06:07:05.917Z,4.52
2022-11-21T06:09:34.115Z,4.43
2022-11-21T06:12:02.182Z,4.51
2022-11-21T06:14:30.346Z,4.56
2022-11-21T06:16:58.649Z,4.54
2022-11-21T06:19:26.807Z,4.44
2022-11-21T06:21:56.270Z,4.53
2022-11-21T06:24:24.349Z,4.54
2022-11-21T06:26:52.375Z,4.58
2022-11-21T06:29:22.287Z,4.56
2022-11-21T06:31:50.943Z,4.58
2022-11-21T06:34:19.162Z,4.51
2022-11-21T06:36:47.284Z,4.62
2022-11-21T06:39:16.784Z,4.54
2022-11-21T06:41:51.266Z,4.52
2022-11-21T06:44:19.469Z,4.48
2022-11-21T06:46:51.218Z,4.51
2022-11-21T06:49:19.682Z,4.35
2022-11-21T06:51:47.692Z,4.44
2022-11-21T06:54:17.404Z,4.52
2022-11-21T06:56:45.480Z,4.40
2022-11-21T06:59:18.967Z,4.50
2022-11-21T07:01:47.226Z,4.60
2022-11-21T07:04:15.431Z,4.59
2022-11-21T07:06:43.494Z,4.50
2022-11-21T07:09:32.166Z,4.68
2022-11-21T07:12:21.756Z,4.45
2022-11-21T07:14:50.460Z,4.51
2022-11-21T07:17:19.415Z,4.59
2022-11-21T07:19:50.321Z,4.61
2022-11-21T07:22:18.554Z,4.66
2022-11-21T07:24:47.042Z,4.53
2022-11-21T07:27:21.033Z,4.66
2022-11-21T07:29:50.013Z,4.59
2022-11-21T07:32:19.998Z,4.66
2022-11-21T07:35:03.416Z,4.68
2022-11-21T07:37:32.429Z,4.71
2022-11-21T07:40:01.097Z,4.65
2022-11-21T07:42:36.537Z,4.77
2022-11-21T07:45:05.534Z,4.78
2022-11-21T07:47:33.698Z,4.83
2022-11-21T07:50:01.868Z,4.72
2022-11-21T07:52:30.650Z,4.82
2022-11-21T07:54:59.195Z,4.92
2022-11-21T07:57:27.494Z,4.91
2022-11-21T07:59:57.237Z,5.07
2022-11-21T08:02:27.220Z,4.92
2022-11-21T08:04:55.515Z,4.98
2022-11-21T08:07:24.953Z,4.91
2022-11-21T08:09:53.260Z,5.14
2022-11-21T08:12:21.467Z,5.16
2022-11-21T08:14:49.604Z,5.16
2022-11-21T08:17:19.231Z,5.16
2022-11-21T08:19:47.211Z,5.20
2022-11-21T08:22:15.182Z,5.37
2022-11-21T08:24:43.281Z,5.20
2022-11-21T08:27:11.567Z,5.17
2022-11-21T08:29:40.046Z,5.26
2022-11-21T08:32:08.172Z,5.25
2022-11-21T08:34:37.645Z,5.34
2022-11-21T08:37:05.825Z,5.38
2022-11-21T08:39:34.149Z,5.45
2022-11-21T08:42:05.468Z,5.43
2022-11-21T08:44:34.895Z,5.50
2022-11-21T08:47:03.441Z,5.47
2022-11-21T08:49:31.645Z,5.53
2022-11-21T08:52:01.296Z,5.51
2022-11-21T08:54:29.718Z,5.51
2022-11-21T08:56:57.996Z,5.59
2022-11-21T08:59:26.128Z,5.62
2022-11-21T09:01:54.333Z,5.75
2022-11-21T09:04:22.545Z,5.68
2022-11-21T09:06:50.705Z,5.66
2022-11-21T09:09:25.092Z,5.72
2022-11-21T09:11:53.892Z,5.76
2022-11-21T09:14:47.975Z,5.78
2022-11-21T09:17:33.576Z,5.86
2022-11-21T09:20:01.599Z,5.98
2022-11-21T09:22:29.674Z,5.94
2022-11-21T09:24:59.284Z,6.00
2022-11-21T09:27:27.520Z,6.01
2022-11-21T09:29:55.588Z,5.97
2022-11-21T09:32:23.693Z,5.94
2022-11-21T09:34:51.822Z,6.11
2022-11-21T09:37:20.011Z,5.98
2022-11-21T09:39:49.019Z,6.08
2022-11-21T09:42:33.423Z,6.11
2022-11-21T09:45:14.900Z,6.24
2022-11-21T09:47:44.703Z,6.15
2022-11-21T09:50:27.159Z,6.40
2022-11-21T09:53:00.010Z,6.52
2022-11-21T09:55:33.888Z,6.66
2022-11-21T09:58:07.624Z,6.89
2022-11-21T10:00:35.783Z,7.01
2022-11-21T10:03:03.763Z,6.93
2022-11-21T10:05:39.195Z,7.04
2022-11-21T10:08:17.673Z,6.89
2022-11-21T10:10:55.304Z,7.01
2022-11-21T10:13:39.555Z,6.88
2022-11-21T10:16:14.562Z,7.04
2022-11-21T10:19:15.766Z,7.26
2022-11-21T10:21:59.253Z,7.47
2022-11-21T10:24:45.111Z,7.53
2022-11-21T10:27:17.116Z,7.49
2022-11-21T10:29:53.208Z,7.40
2022-11-21T10:32:25.631Z,7.31
2022-11-21T10:34:59.243Z,7.34
2022-11-21T10:37:38.968Z,7.15
2022-11-21T10:40:21.793Z,7.18
2022-11-21T10:42:56.873Z,7.12
2022-11-21T10:45:32.810Z,7.27
2022-11-21T10:48:06.774Z,7.26
2022-11-21T10:50:46.487Z,7.51
2022-11-21T10:53:36.159Z,7.47
2022-11-21T10:56:07.767Z,7.37
2022-11-21T10:58:41.323Z,7.37
2022-11-21T11:01:22.428Z,7.32
2022-11-21T11:04:26.778Z,7.37
2022-11-21T11:06:55.136Z,7.58
2022-11-21T11:09:33.412Z,7.59
2022-11-21T11:12:56.612Z,7.78
2022-11-21T11:15:30.802Z,7.55
2022-11-21T11:21:18.476Z,7.59
2022-11-21T11:23:47.143Z,7.46
2022-11-21T11:26:33.631Z,7.56
2022-11-21T11:29:11.620Z,7.58
2022-11-21T11:32:03.949Z,7.57
2022-11-21T11:35:18.228Z,7.64
2022-11-21T11:38:20.795Z,7.67
2022-11-21T11:40:48.919Z,7.79
2022-11-21T11:43:48.276Z,7.69
2022-11-21T11:46:48.065Z,7.76
2022-11-21T11:49:22.840Z,7.88
2022-11-21T11:51:56.512Z,7.86
2022-11-21T11:54:29.352Z,7.98
2022-11-21T11:56:58.715Z,7.99
2022-11-21T11:59:32.762Z,8.11
2022-11-21T12:02:08.896Z,8.28
2022-11-21T12:04:47.275Z,8.16
2022-11-21T12:10:18.594Z,8.04
2022-11-21T12:12:51.138Z,8.08
2022-11-21T12:15:41.862Z,8.25
2022-11-21T12:18:17.754Z,8.15
2022-11-21T12:20:55.448Z,8.15
2022-11-21T12:23:27.752Z,8.10
2022-11-21T12:26:08.009Z,8.28
2022-11-21T12:28:47.122Z,8.60
2022-11-21T12:31:22.636Z,8.80
2022-11-21T12:33:59.674Z,8.99
2022-11-21T12:36:38.848Z,9.07
2022-11-21T12:39:42.094Z,9.15
2022-11-21T12:42:35.774Z,9.24
2022-11-21T12:45:21.096Z,9.19
2022-11-21T12:48:29.175Z,8.96
2022-11-21T12:51:27.163Z,8.91
2022-11-21T12:54:19.465Z,8.78
2022-11-21T12:56:52.912Z,8.70
2022-11-21T12:59:24.626Z,8.68
2022-11-21T13:02:02.952Z,8.72
2022-11-21T13:04:35.747Z,8.74
2022-11-21T13:07:04.969Z,8.45
2022-11-21T13:09:39.208Z,8.39
2022-11-21T13:12:11.088Z,8.42
2022-11-21T13:14:48.405Z,8.35
2022-11-21T13:17:29.297Z,8.29
2022-11-21T13:20:01.659Z,8.32
2022-11-21T13:23:07.808Z,8.37
2022-11-21T13:25:47.933Z,8.47
2022-11-21T13:28:36.406Z,8.40
2022-11-21T13:31:30.528Z,8.30
2022-11-21T13:33:59.249Z,8.18
2022-11-21T13:36:38.887Z,8.26
2022-11-21T13:39:31.632Z,8.35
2022-11-21T13:42:35.876Z,8.36
2022-11-21T13:45:40.408Z,8.37
2022-11-21T13:48:23.219Z,8.31
2022-11-21T13:51:04.967Z,8.25
2022-11-21T13:53:58.119Z,8.32
2022-11-21T13:56:36.965Z,8.39
2022-11-21T13:59:28.389Z,8.23
2022-11-21T14:02:38.042Z,8.23
2022-11-21T14:05:34.028Z,8.20
2022-11-21T14:08:15.322Z,8.20
2022-11-21T14:10:43.367Z,8.25
2022-11-21T14:13:22.720Z,8.22
2022-11-21T14:15:55.597Z,8.15
2022-11-21T14:18:30.936Z,8.12
2022-11-21T14:21:02.340Z,8.25
2022-11-21T14:23:33.300Z,8.22
2022-11-21T14:26:04.843Z,8.27
2022-11-21T14:28:35.912Z,8.13
2022-11-21T14:31:06.756Z,8.17
2022-11-21T14:33:36.534Z,8.06
2022-11-21T14:36:09.944Z,8.05
2022-11-21T14:38:44.065Z,7.85
2022-11-21T14:41:31.486Z,8.16
2022-11-21T14:44:15.451Z,8.06
2022-11-21T14:46:44.723Z,8.02
2022-11-21T14:49:21.671Z,7.84
2022-11-21T14:51:53.884Z,7.81
2022-11-21T14:54:24.830Z,7.79
2022-11-21T14:56:59.048Z,7.67
2022-11-21T14:59:31.751Z,7.69
2022-11-21T15:02:05.231Z,7.67
2022-11-21T15:04:35.588Z,7.62
2022-11-21T15:07:05.790Z,7.58
2022-11-21T15:12:28.834Z,7.54
2022-11-21T15:15:01.419Z,7.36
2022-11-21T15:17:30.045Z,7.52
2022-11-21T15:22:59.404Z,7.43
2022-11-21T15:25:29.271Z,7.46
2022-11-21T15:28:10.280Z,7.46
2022-11-21T15:30:38.727Z,7.48
2022-11-21T15:33:09.368Z,7.41
2022-11-21T15:35:47.396Z,7.41
2022-11-21T15:38:25.510Z,7.29
2022-11-21T15:41:01.546Z,7.27
2022-11-21T15:43:37.914Z,7.12
2022-11-21T15:46:12.737Z,7.23
2022-11-21T15:48:40.702Z,7.22
2022-11-21T15:51:10.719Z,7.14
2022-11-21T15:53:40.439Z,7.05
2022-11-21T15:56:11.357Z,7.13
2022-11-21T15:57:13.008Z,7.51
2022-11-21T15:58:39.493Z,7.13
2022-11-21T16:01:08.235Z,7.27
2022-11-21T16:03:36.323Z,7.07
2022-11-21T16:06:04.424Z,7.05
2022-11-21T16:08:32.673Z,7.08
2022-11-21T16:11:02.332Z,7.00
2022-11-21T16:13:30.513Z,6.95
2022-11-21T16:16:00.853Z,6.98
2022-11-21T16:18:30.588Z,6.99
2022-11-21T16:21:09.234Z,7.01
2022-11-21T16:23:37.495Z,7.03
2022-11-21T16:26:07.445Z,7.18
2022-11-21T16:28:35.683Z,7.14
2022-11-21T16:31:04.231Z,7.02
2022-11-21T16:33:33.748Z,7.12
2022-11-21T16:36:02.217Z,7.05
2022-11-21T16:38:31.550Z,7.18
2022-11-21T16:41:01.037Z,7.07
2022-11-21T16:43:31.378Z,7.01
2022-11-21T16:46:08.730Z,7.16
2022-11-21T16:48:37.247Z,7.08
2022-11-21T16:51:11.190Z,7.10
2022-11-21T16:53:39.573Z,7.12
2022-11-21T16:56:08.675Z,7.08
2022-11-21T16:58:39.618Z,7.00
2022-11-21T17:01:12.408Z,7.05
2022-11-21T17:03:40.838Z,6.99
2022-11-21T17:06:09.821Z,6.81
2022-11-21T17:08:38.466Z,6.96
2022-11-21T17:11:13.814Z,7.11
2022-11-21T17:13:43.729Z,6.97
2022-11-21T17:16:13.099Z,6.98
2022-11-21T17:18:41.817Z,7.05
2022-11-21T17:21:12.033Z,7.16
2022-11-21T17:23:42.383Z,7.01
2022-11-21T17:26:11.844Z,7.01
2022-11-21T17:28:45.334Z,7.35
2022-11-21T17:31:16.822Z,7.06
2022-11-21T17:33:50.163Z,7.14
2022-11-21T17:36:20.008Z,6.99
2022-11-21T17:38:48.309Z,7.09
2022-11-21T17:41:17.907Z,7.06
2022-11-21T17:43:47.421Z,7.00
2022-11-21T17:46:18.615Z,6.96
2022-11-21T17:48:54.557Z,6.96
2022-11-21T17:51:25.416Z,6.93
2022-11-21T17:53:54.243Z,6.97
2022-11-21T17:56:23.848Z,6.95
2022-11-21T17:58:52.694Z,7.01
2022-11-21T18:01:22.380Z,7.09
2022-11-21T18:03:55.678Z,6.94
2022-11-21T18:06:24.181Z,6.98
2022-11-21T18:08:52.061Z,7.04
2022-11-21T18:11:22.047Z,7.03
2022-11-21T18:13:50.564Z,6.93
2022-11-21T18:16:23.599Z,6.93
2022-11-21T18:18:52.367Z,6.90
2022-11-21T18:21:26.246Z,6.94
2022-11-21T18:23:55.490Z,6.87
2022-11-21T18:26:28.953Z,7.07
2022-11-21T18:29:20.648Z,6.87
2022-11-21T18:32:17.428Z,6.98
2022-11-21T18:34:48.001Z,6.92
2022-11-21T18:37:15.880Z,6.85
2022-11-21T18:39:43.785Z,6.92
2022-11-21T18:42:11.633Z,7.09
2022-11-21T18:44:43.096Z,7.40
2022-11-21T18:47:20.008Z,7.15
2022-11-21T18:50:05.452Z,7.10
2022-11-21T18:52:45.079Z,7.28
2022-11-21T18:58:16.171Z,6.98
2022-11-21T19:00:44.141Z,7.08
2022-11-21T19:03:12.816Z,7.22
2022-11-21T19:05:43.334Z,7.11
2022-11-21T19:08:11.198Z,7.36
2022-11-21T19:10:52.272Z,7.03
2022-11-21T19:13:24.013Z,7.09
2022-11-21T19:16:12.793Z,7.11
2022-11-21T19:18:48.506Z,7.07
2022-11-21T19:21:38.996Z,7.05
2022-11-21T19:24:19.747Z,7.08
2022-11-21T19:26:50.367Z,7.11
2022-11-21T19:29:19.610Z,7.15
2022-11-21T19:31:47.851Z,7.22
2022-11-21T19:34:16.312Z,7.09
2022-11-21T19:39:33.727Z,7.34
2022-11-21T19:42:01.719Z,7.18
2022-11-21T19:45:07.706Z,7.09
2022-11-21T19:47:22.505Z,7.21
2022-11-21T19:50:02.757Z,7.16
2022-11-21T19:55:38.158Z,7.20
2022-11-21T19:58:06.192Z,7.16
2022-11-21T20:00:54.796Z,7.34
2022-11-21T20:03:28.330Z,7.27
2022-11-21T20:06:23.939Z,7.15
2022-11-21T20:09:05.600Z,7.30
2022-11-21T20:11:40.323Z,7.29
2022-11-21T20:14:08.773Z,7.18
2022-11-21T20:16:42.812Z,7.48
2022-11-21T20:19:12.956Z,7.38
2022-11-21T20:21:45.252Z,7.33
2022-11-21T20:24:14.905Z,7.27
2022-11-21T20:26:43.762Z,7.27
2022-11-21T20:29:40.575Z,7.36
2022-11-21T20:32:30.067Z,7.42
2022-11-21T20:35:10.582Z,7.33
2022-11-21T20:37:43.707Z,7.26
2022-11-21T20:43:05.218Z,7.44
2022-11-21T20:48:48.466Z,7.33
2022-11-21T20:54:22.654Z,7.14
2022-11-21T20:57:18.436Z,7.34
2022-11-21T20:59:46.394Z,7.40
2022-11-21T21:02:25.408Z,7.28
2022-11-21T21:05:06.435Z,7.32
2022-11-21T21:07:44.109Z,7.18
2022-11-21T21:10:17.734Z,7.33
2022-11-21T21:12:48.731Z,7.23
2022-11-21T21:15:34.965Z,7.29
2022-11-21T21:18:52.121Z,7.42
2022-11-21T21:21:28.620Z,7.31
2022-11-21T21:24:02.841Z,7.29
2022-11-21T21:26:38.623Z,7.52
2022-11-21T21:29:11.970Z,7.47
2022-11-21T21:31:43.822Z,7.47
2022-11-21T21:34:14.873Z,7.42
2022-11-21T21:36:42.828Z,7.30
2022-11-21T21:39:10.794Z,7.42
2022-11-21T21:41:40.040Z,7.41
2022-11-21T21:44:08.195Z,7.40
2022-11-21T21:46:37.416Z,7.47
2022-11-21T21:49:05.350Z,7.36
2022-11-21T21:51:36.729Z,7.50
2022-11-21T21:54:05.583Z,7.50
2022-11-21T21:56:34.663Z,7.22
2022-11-21T21:59:02.801Z,7.52
2022-11-21T22:01:32.232Z,7.51
2022-11-21T22:04:03.699Z,7.44
2022-11-21T22:06:34.459Z,7.47
2022-11-21T22:09:02.883Z,7.33
2022-11-21T22:11:32.381Z,7.22
2022-11-21T22:14:02.331Z,7.33
2022-11-21T22:16:30.759Z,7.21
2022-11-21T22:18:59.014Z,7.27
2022-11-21T22:21:30.069Z,7.14
2022-11-21T22:26:46.978Z,7.30
2022-11-21T22:29:14.885Z,7.26
2022-11-21T22:31:42.949Z,7.26
2022-11-21T22:34:12.879Z,7.42
2022-11-21T22:36:42.936Z,7.33
2022-11-21T22:39:10.890Z,7.32
2022-11-21T22:41:38.821Z,7.39
2022-11-21T22:44:06.818Z,7.27
2022-11-21T22:46:34.829Z,7.29
2022-11-21T22:49:03.595Z,7.07
2022-11-21T22:51:31.528Z,7.11
2022-11-21T22:54:00.853Z,6.84
2022-11-21T22:56:28.973Z,6.84
2022-11-21T22:58:57.164Z,6.98
2022-11-21T23:01:26.977Z,6.88
2022-11-21T23:03:56.950Z,6.90
2022-11-21T23:06:26.547Z,6.94
2022-11-21T23:08:55.912Z,6.78
2022-11-21T23:11:27.775Z,6.75
2022-11-21T23:13:57.184Z,6.87
2022-11-21T23:16:25.798Z,6.50
2022-11-21T23:18:54.337Z,6.55
2022-11-21T23:21:22.526Z,6.55
2022-11-21T23:23:50.607Z,6.71
2022-11-21T23:26:18.872Z,6.85
2022-11-21T23:28:48.244Z,6.62
2022-11-21T23:31:16.437Z,6.66
2022-11-21T23:33:44.424Z,6.72
2022-11-21T23:36:12.475Z,6.68
2022-11-21T23:38:40.496Z,6.72
2022-11-21T23:41:08.617Z,6.65
2022-11-21T23:43:36.629Z,6.57
2022-11-21T23:46:06.174Z,6.68
2022-11-21T23:48:34.100Z,6.69
2022-11-21T23:51:02.141Z,6.67
2022-11-21T23:53:30.182Z,6.69
2022-11-21T23:55:58.159Z,6.71
2022-11-21T23:58:26.098Z,6.67
